Preview of NWS' New Version of Forecast
This preview is not operational and should not be used for support decisions.

Terminal Aerodrome Forecast (TAF)

Issued by National Weather Service (NWS)

                            
361 
FTUS42 KKEY 251212 AAA
TAFMTH
TAF AMD
KMTH 251212Z 2512/2612 VRB06KT 6SM -RA SCT015 BKN040
      TEMPO 2512/2515 12014G23KT 2SM SHRA BR BKN015 BKN025
     FM251500 09011KT P6SM VCSH FEW020 SCT050 OVC070
     FM252000 10012G18KT P6SM -RA SCT015 SCT030 OVC060
      TEMPO 2520/2524 12014G24KT 3SM +TSRA BR BKN015CB OVC030
     FM260600 13011G20KT 4SM -RA OVC015 PROB30 2606/2607 4SM -TSRA
      BKN015CB=